createdAt,value
2022-12-11T00:01:21.496Z,21.90
2022-12-11T00:03:50.241Z,21.70
2022-12-11T00:06:21.354Z,18.90
2022-12-11T00:08:54.858Z,18.00
2022-12-11T00:11:23.656Z,18.90
2022-12-11T00:13:52.030Z,19.00
2022-12-11T00:16:25.288Z,19.40
2022-12-11T00:18:55.750Z,19.70
2022-12-11T00:21:24.443Z,20.80
2022-12-11T00:23:53.430Z,21.40
2022-12-11T00:26:22.146Z,22.10
2022-12-11T00:28:57.312Z,23.30
2022-12-11T00:31:25.906Z,22.10
2022-12-11T00:33:54.334Z,18.50
2022-12-11T00:36:25.772Z,14.90
2022-12-11T00:38:54.731Z,15.00
2022-12-11T00:41:23.363Z,16.20
2022-12-11T00:43:51.711Z,16.30
2022-12-11T00:46:21.775Z,14.80
2022-12-11T00:48:50.402Z,17.70
2022-12-11T00:51:18.723Z,17.70
2022-12-11T00:53:47.225Z,17.30
2022-12-11T00:56:21.834Z,18.00
2022-12-11T00:58:50.510Z,18.20
2022-12-11T01:01:22.600Z,18.80
2022-12-11T01:03:51.857Z,18.90
2022-12-11T01:06:23.437Z,18.30
2022-12-11T01:09:10.654Z,19.50
2022-12-11T01:11:40.256Z,20.10
2022-12-11T01:14:10.870Z,18.50
2022-12-11T01:16:39.872Z,19.40
2022-12-11T01:19:08.323Z,21.20
2022-12-11T01:21:36.880Z,21.90
2022-12-11T01:24:05.879Z,20.60
2022-12-11T01:26:34.174Z,20.50
2022-12-11T01:29:02.611Z,18.60
2022-12-11T01:31:31.318Z,15.20
2022-12-11T01:34:00.004Z,15.20
2022-12-11T01:36:28.580Z,14.10
2022-12-11T01:38:57.041Z,15.60
2022-12-11T01:41:25.785Z,16.70
2022-12-11T01:44:06.510Z,16.30
2022-12-11T01:46:36.625Z,16.00
2022-12-11T01:49:09.367Z,16.20
2022-12-11T01:51:46.330Z,16.20
2022-12-11T01:54:17.500Z,15.80
2022-12-11T01:56:48.442Z,15.20
2022-12-11T01:59:21.062Z,14.70
2022-12-11T02:02:04.991Z,14.90
2022-12-11T02:04:36.589Z,15.00
2022-12-11T02:07:05.094Z,13.80
2022-12-11T02:09:35.927Z,13.00
2022-12-11T02:12:24.805Z,13.10
2022-12-11T02:15:02.500Z,12.10
2022-12-11T02:17:38.884Z,11.20
2022-12-11T02:20:10.308Z,11.70
2022-12-11T02:23:07.659Z,9.50
2022-12-11T02:26:04.174Z,11.30
2022-12-11T02:28:44.305Z,11.50
2022-12-11T02:31:36.609Z,11.80
2022-12-11T02:34:13.251Z,10.70
2022-12-11T02:36:45.597Z,11.90
2022-12-11T02:39:16.885Z,11.70
2022-12-11T02:41:50.164Z,11.20
2022-12-11T02:44:26.370Z,11.40
2022-12-11T02:46:55.831Z,11.60
2022-12-11T02:49:27.054Z,9.40
2022-12-11T02:51:56.874Z,10.90
2022-12-11T02:54:33.629Z,9.90
2022-12-11T02:57:30.259Z,9.50
2022-12-11T02:59:58.860Z,10.00
2022-12-11T03:02:27.774Z,9.10
2022-12-11T03:04:57.925Z,9.80
2022-12-11T03:07:34.184Z,8.90
2022-12-11T03:10:05.228Z,9.80
2022-12-11T03:12:39.357Z,10.60
2022-12-11T03:15:14.064Z,10.20
2022-12-11T03:18:17.759Z,10.30
2022-12-11T03:21:02.682Z,9.50
2022-12-11T03:23:37.178Z,9.30
2022-12-11T03:26:12.802Z,10.10
2022-12-11T03:28:58.797Z,10.40
2022-12-11T03:31:39.375Z,9.90
2022-12-11T03:34:24.936Z,10.10
2022-12-11T03:36:56.303Z,7.50
2022-12-11T03:39:31.022Z,8.10
2022-12-11T03:42:03.239Z,8.80
2022-12-11T03:44:33.693Z,8.30
2022-12-11T03:47:06.512Z,7.70
2022-12-11T03:49:39.995Z,7.40
2022-12-11T03:52:11.610Z,7.60
2022-12-11T03:54:42.021Z,6.30
2022-12-11T03:57:15.242Z,7.80
2022-12-11T04:02:11.912Z,6.80
2022-12-11T04:04:42.746Z,8.00
2022-12-11T04:07:11.193Z,7.70
2022-12-11T04:09:39.369Z,7.40
2022-12-11T04:12:07.624Z,8.30
2022-12-11T04:14:54.841Z,7.80
2022-12-11T04:17:41.818Z,7.80
2022-12-11T04:20:30.090Z,8.00
2022-12-11T04:23:17.157Z,7.60
2022-12-11T04:25:45.637Z,8.00
2022-12-11T04:28:14.024Z,7.40
2022-12-11T04:30:49.104Z,7.60
2022-12-11T04:33:17.438Z,7.40
2022-12-11T04:35:45.972Z,7.70
2022-12-11T04:38:14.652Z,8.30
2022-12-11T04:40:43.026Z,8.10
2022-12-11T04:43:11.349Z,8.30
2022-12-11T04:45:39.697Z,7.70
2022-12-11T04:48:08.698Z,6.50
2022-12-11T04:50:37.149Z,7.00
2022-12-11T04:53:05.486Z,7.50
2022-12-11T04:55:33.830Z,7.50
2022-12-11T04:58:02.503Z,6.50
2022-12-11T05:00:31.222Z,7.00
2022-12-11T05:02:59.630Z,6.80
2022-12-11T05:05:28.096Z,6.40
2022-12-11T05:07:56.784Z,7.10
2022-12-11T05:10:25.189Z,6.70
2022-12-11T05:12:53.415Z,6.70
2022-12-11T05:15:21.775Z,7.00
2022-12-11T05:17:49.970Z,7.70
2022-12-11T05:20:18.875Z,6.80
2022-12-11T05:22:47.219Z,5.60
2022-12-11T05:25:15.625Z,6.60
2022-12-11T05:27:43.894Z,7.40
2022-12-11T05:30:12.438Z,7.40
2022-12-11T05:32:40.757Z,8.00
2022-12-11T05:35:10.393Z,7.40
2022-12-11T05:37:39.059Z,8.30
2022-12-11T05:40:08.632Z,8.60
2022-12-11T05:42:37.184Z,8.90
2022-12-11T05:45:06.283Z,9.20
2022-12-11T05:47:34.805Z,8.20
2022-12-11T05:50:03.181Z,8.80
2022-12-11T05:52:32.368Z,9.00
2022-12-11T05:55:01.009Z,8.30
2022-12-11T05:57:29.374Z,8.40
2022-12-11T05:59:57.800Z,9.60
2022-12-11T06:02:26.696Z,9.30
2022-12-11T06:04:55.261Z,8.70
2022-12-11T06:07:23.573Z,8.10
2022-12-11T06:09:52.146Z,8.20
2022-12-11T06:12:21.325Z,9.40
2022-12-11T06:14:50.635Z,8.50
2022-12-11T06:17:19.223Z,7.20
2022-12-11T06:19:47.717Z,7.60
2022-12-11T06:22:16.268Z,7.30
2022-12-11T06:24:44.575Z,6.90
2022-12-11T06:27:13.115Z,8.10
2022-12-11T06:29:41.613Z,8.20
2022-12-11T06:32:10.676Z,8.30
2022-12-11T06:34:39.855Z,7.90
2022-12-11T06:37:08.421Z,8.50
2022-12-11T06:39:36.984Z,9.00
2022-12-11T06:42:05.624Z,8.40
2022-12-11T06:44:34.093Z,9.30
2022-12-11T06:47:03.992Z,8.90
2022-12-11T06:49:32.556Z,8.00
2022-12-11T06:52:01.089Z,9.10
2022-12-11T06:54:29.784Z,8.00
2022-12-11T06:56:58.080Z,9.30
2022-12-11T06:59:26.313Z,8.20
2022-12-11T07:01:54.587Z,9.00
2022-12-11T07:04:25.084Z,8.80
2022-12-11T07:06:54.100Z,9.50
2022-12-11T07:09:23.151Z,9.60
2022-12-11T07:11:52.517Z,10.60
2022-12-11T07:14:21.180Z,11.60
2022-12-11T07:16:49.852Z,12.10
2022-12-11T07:19:18.122Z,11.10
2022-12-11T07:21:46.912Z,9.30
2022-12-11T07:24:15.218Z,10.60
2022-12-11T07:26:43.637Z,10.90
2022-12-11T07:29:11.948Z,10.20
2022-12-11T07:31:40.176Z,10.30
2022-12-11T07:34:08.537Z,10.50
2022-12-11T07:36:36.790Z,10.40
2022-12-11T07:39:05.258Z,9.50
2022-12-11T07:41:33.546Z,8.80
2022-12-11T07:44:02.157Z,7.80
2022-12-11T07:46:33.302Z,9.00
2022-12-11T07:49:02.134Z,9.00
2022-12-11T07:51:32.338Z,8.90
2022-12-11T07:54:03.445Z,8.90
2022-12-11T07:56:32.557Z,7.90
2022-12-11T07:59:03.519Z,9.60
2022-12-11T08:01:36.611Z,7.50
2022-12-11T08:04:07.509Z,9.40
2022-12-11T08:06:39.404Z,8.70
2022-12-11T08:09:10.107Z,8.00
2022-12-11T08:11:38.526Z,9.60
2022-12-11T08:14:08.826Z,11.60
2022-12-11T08:16:37.088Z,11.90
2022-12-11T08:19:05.417Z,10.90
2022-12-11T08:21:33.654Z,9.60
2022-12-11T08:24:01.913Z,10.10
2022-12-11T08:26:34.267Z,10.70
2022-12-11T08:29:03.465Z,9.90
2022-12-11T08:31:31.905Z,9.70
2022-12-11T08:34:00.448Z,9.70
2022-12-11T08:36:28.729Z,9.70
2022-12-11T08:38:57.457Z,9.40
2022-12-11T08:41:28.505Z,10.70
2022-12-11T08:43:58.802Z,10.30
2022-12-11T08:46:29.727Z,10.90
2022-12-11T08:48:58.628Z,10.80
2022-12-11T08:51:28.777Z,10.40
2022-12-11T08:53:59.411Z,10.50
2022-12-11T08:56:28.807Z,11.30
2022-12-11T08:59:01.083Z,11.50
2022-12-11T09:01:29.729Z,9.60
2022-12-11T09:03:58.556Z,10.30
2022-12-11T09:06:29.333Z,10.90
2022-12-11T09:09:00.181Z,10.70
2022-12-11T09:11:31.916Z,10.20
2022-12-11T09:14:05.440Z,11.30
2022-12-11T09:16:41.012Z,11.50
2022-12-11T09:21:40.752Z,12.20
2022-12-11T09:24:10.815Z,10.20
2022-12-11T09:26:39.958Z,11.30
2022-12-11T09:29:08.946Z,11.40
2022-12-11T09:31:37.191Z,9.30
2022-12-11T09:34:08.391Z,10.00
2022-12-11T09:36:40.986Z,10.30
2022-12-11T09:39:12.355Z,9.90
2022-12-11T09:41:55.766Z,8.90
2022-12-11T09:44:33.052Z,7.80
2022-12-11T09:47:02.087Z,7.60
2022-12-11T09:49:44.224Z,9.10
2022-12-11T09:52:17.901Z,8.00
2022-12-11T09:54:59.872Z,8.10
2022-12-11T09:57:46.111Z,9.60
2022-12-11T10:00:38.274Z,8.70
2022-12-11T10:03:43.235Z,7.80
2022-12-11T10:06:40.646Z,9.10
2022-12-11T10:09:34.522Z,8.10
2022-12-11T10:12:17.830Z,7.50
2022-12-11T10:17:32.787Z,6.60
2022-12-11T10:20:10.199Z,6.90
2022-12-11T10:22:38.696Z,7.10
2022-12-11T10:25:11.682Z,8.50
2022-12-11T10:27:45.383Z,8.20
2022-12-11T10:30:14.600Z,8.40
2022-12-11T10:32:51.023Z,8.20
2022-12-11T10:35:31.993Z,7.50
2022-12-11T10:38:11.383Z,7.40
2022-12-11T10:40:49.758Z,5.80
2022-12-11T10:43:18.174Z,6.10
2022-12-11T10:45:55.206Z,6.30
2022-12-11T10:48:23.780Z,7.20
2022-12-11T10:51:01.946Z,7.00
2022-12-11T10:53:32.175Z,7.30
2022-12-11T10:56:00.999Z,8.20
2022-12-11T10:58:34.539Z,8.70
2022-12-11T11:01:05.235Z,7.60
2022-12-11T11:03:35.747Z,7.80
2022-12-11T11:06:06.375Z,7.90
2022-12-11T11:08:44.469Z,7.60
2022-12-11T11:11:33.987Z,8.70
2022-12-11T11:14:21.412Z,8.50
2022-12-11T11:16:52.585Z,8.30
2022-12-11T11:19:30.050Z,7.40
2022-12-11T11:22:02.367Z,8.10
2022-12-11T11:24:33.610Z,7.70
2022-12-11T11:27:13.122Z,7.30
2022-12-11T11:29:43.119Z,7.80
2022-12-11T11:32:20.476Z,9.00
2022-12-11T11:34:48.918Z,8.20
2022-12-11T11:37:30.416Z,8.20
2022-12-11T11:40:08.636Z,8.30
2022-12-11T11:42:45.770Z,7.20
2022-12-11T11:45:23.253Z,6.60
2022-12-11T11:48:11.087Z,6.60
2022-12-11T11:50:45.062Z,7.90
2022-12-11T11:53:26.781Z,7.80
2022-12-11T11:55:57.962Z,6.90
2022-12-11T11:59:05.071Z,7.10
2022-12-11T12:01:33.698Z,6.80
2022-12-11T12:04:04.231Z,6.60
2022-12-11T12:06:57.846Z,6.80
2022-12-11T12:12:37.475Z,6.30
2022-12-11T12:15:18.978Z,6.30
2022-12-11T12:17:57.857Z,6.00
2022-12-11T12:20:37.918Z,6.60
2022-12-11T12:23:24.217Z,5.80
2022-12-11T12:26:07.035Z,6.70
2022-12-11T12:28:38.086Z,5.90
2022-12-11T12:31:18.255Z,7.30
2022-12-11T12:34:08.361Z,6.70
2022-12-11T12:36:49.483Z,7.40
2022-12-11T12:39:24.393Z,8.10
2022-12-11T12:42:20.665Z,7.60
2022-12-11T12:45:05.795Z,7.60
2022-12-11T12:47:36.361Z,7.40
2022-12-11T12:50:14.873Z,8.10
2022-12-11T12:52:44.402Z,7.60
2022-12-11T12:55:23.687Z,8.20
2022-12-11T12:58:00.708Z,8.70
2022-12-11T13:00:36.019Z,7.80
2022-12-11T13:03:17.017Z,7.70
2022-12-11T13:06:06.047Z,8.60
2022-12-11T13:08:40.079Z,7.30
2022-12-11T13:11:13.899Z,7.90
2022-12-11T13:13:54.838Z,7.30
2022-12-11T13:16:35.778Z,8.10
2022-12-11T13:19:16.160Z,8.20
2022-12-11T13:22:20.298Z,8.80
2022-12-11T13:25:17.023Z,7.70
2022-12-11T13:27:45.212Z,7.90
2022-12-11T13:30:16.212Z,9.50
2022-12-11T13:33:06.324Z,8.00
2022-12-11T13:35:35.560Z,7.20
2022-12-11T13:38:08.311Z,9.80
2022-12-11T13:40:42.195Z,7.70
2022-12-11T13:43:20.433Z,8.00
2022-12-11T13:45:51.521Z,9.10
2022-12-11T13:48:27.582Z,8.50
2022-12-11T13:50:57.999Z,8.50
2022-12-11T13:53:26.352Z,9.00
2022-12-11T13:55:58.906Z,9.50
2022-12-11T13:58:28.278Z,8.90
2022-12-11T14:01:12.914Z,8.70
2022-12-11T14:03:48.831Z,8.80
2022-12-11T14:06:19.364Z,9.50
2022-12-11T14:08:54.707Z,10.10
2022-12-11T14:11:30.526Z,9.50
2022-12-11T14:14:03.591Z,8.30
2022-12-11T14:16:32.084Z,7.90
2022-12-11T14:19:07.601Z,7.40
2022-12-11T14:21:36.461Z,6.90
2022-12-11T14:24:06.721Z,8.00
2022-12-11T14:26:38.833Z,8.40
2022-12-11T14:29:27.998Z,9.30
2022-12-11T14:32:00.604Z,7.40
2022-12-11T14:34:44.818Z,6.70
2022-12-11T14:37:16.162Z,6.70
2022-12-11T14:39:46.134Z,6.90
2022-12-11T14:42:22.115Z,7.10
2022-12-11T14:45:20.431Z,7.00
2022-12-11T14:47:50.559Z,7.10
2022-12-11T14:50:23.834Z,8.10
2022-12-11T14:52:59.913Z,8.20
2022-12-11T14:55:35.303Z,8.20
2022-12-11T14:58:17.171Z,6.50
2022-12-11T15:01:00.119Z,7.60
2022-12-11T15:03:35.678Z,7.70
2022-12-11T15:06:24.056Z,7.30
2022-12-11T15:08:52.680Z,7.30
2022-12-11T15:11:22.120Z,8.00
2022-12-11T15:13:58.008Z,5.90
2022-12-11T15:16:29.404Z,6.10
2022-12-11T15:18:59.117Z,6.60
2022-12-11T15:21:33.582Z,5.80
2022-12-11T15:24:05.144Z,6.70
2022-12-11T15:26:39.746Z,6.40
2022-12-11T15:29:37.165Z,6.40
2022-12-11T15:32:08.269Z,6.50
2022-12-11T15:34:57.746Z,6.20
2022-12-11T15:37:29.205Z,7.40
2022-12-11T15:40:00.009Z,8.00
2022-12-11T15:42:34.733Z,6.70
2022-12-11T15:45:06.943Z,7.10
2022-12-11T15:47:35.516Z,7.30
2022-12-11T15:50:28.551Z,7.70
2022-12-11T15:52:58.152Z,7.50
2022-12-11T15:55:29.900Z,7.90
2022-12-11T15:58:03.808Z,8.50
2022-12-11T16:00:32.202Z,7.60
2022-12-11T16:03:00.553Z,8.10
2022-12-11T16:05:28.958Z,7.90
2022-12-11T16:07:59.861Z,7.00
2022-12-11T16:10:28.388Z,8.00
2022-12-11T16:12:59.775Z,7.10
2022-12-11T16:15:29.374Z,7.50
2022-12-11T16:18:08.014Z,7.70
2022-12-11T16:20:37.743Z,7.60
2022-12-11T16:23:06.423Z,7.30
2022-12-11T16:25:36.750Z,7.50
2022-12-11T16:28:06.656Z,8.10
2022-12-11T16:30:36.901Z,8.20
2022-12-11T16:33:12.170Z,7.40
2022-12-11T16:35:43.075Z,7.50
2022-12-11T16:38:11.870Z,7.10
2022-12-11T16:40:41.585Z,7.20
2022-12-11T16:43:11.042Z,7.30
2022-12-11T16:45:40.078Z,6.70
2022-12-11T16:48:08.588Z,6.70
2022-12-11T16:50:40.092Z,7.50
2022-12-11T16:53:08.262Z,7.40
2022-12-11T16:55:36.518Z,7.10
2022-12-11T16:58:05.514Z,6.80
2022-12-11T17:00:33.924Z,6.60
2022-12-11T17:03:02.270Z,7.20
2022-12-11T17:05:30.663Z,7.70
2022-12-11T17:07:59.112Z,7.40
2022-12-11T17:10:27.348Z,6.90
2022-12-11T17:13:00.279Z,7.10
2022-12-11T17:15:28.624Z,6.90
2022-12-11T17:17:57.161Z,7.80
2022-12-11T17:20:25.752Z,7.50
2022-12-11T17:22:54.127Z,7.40
2022-12-11T17:25:22.737Z,8.30
2022-12-11T17:27:51.076Z,8.50
2022-12-11T17:30:19.564Z,8.40
2022-12-11T17:32:48.861Z,9.10
2022-12-11T17:35:17.481Z,7.50
2022-12-11T17:37:45.727Z,7.60
2022-12-11T17:40:14.055Z,8.40
2022-12-11T17:42:45.143Z,9.50
2022-12-11T17:45:13.690Z,8.80
2022-12-11T17:47:42.250Z,8.00
2022-12-11T17:50:10.931Z,8.30
2022-12-11T17:52:44.024Z,7.80
2022-12-11T17:55:13.042Z,7.30
2022-12-11T17:57:41.483Z,7.10
2022-12-11T18:00:10.318Z,7.10
2022-12-11T18:02:41.081Z,7.40
2022-12-11T18:05:09.776Z,7.20
2022-12-11T18:07:39.143Z,7.00
2022-12-11T18:10:07.760Z,7.40
2022-12-11T18:12:36.279Z,6.90
2022-12-11T18:15:05.604Z,6.90
2022-12-11T18:17:34.656Z,6.40
2022-12-11T18:20:03.912Z,6.00
2022-12-11T18:22:32.849Z,6.70
2022-12-11T18:25:06.417Z,6.00
2022-12-11T18:27:38.723Z,6.10
2022-12-11T18:30:07.796Z,6.40
2022-12-11T18:32:37.355Z,6.50
2022-12-11T18:35:06.751Z,7.50
2022-12-11T18:37:36.082Z,6.90
2022-12-11T18:40:06.074Z,6.40
2022-12-11T18:42:35.011Z,6.10
2022-12-11T18:45:04.760Z,5.50
2022-12-11T18:47:33.215Z,5.50
2022-12-11T18:50:07.422Z,6.00
2022-12-11T18:52:37.036Z,6.80
2022-12-11T18:55:06.939Z,6.10
2022-12-11T18:57:35.283Z,6.70
2022-12-11T19:00:07.639Z,7.30
2022-12-11T19:02:36.330Z,6.90
2022-12-11T19:05:05.480Z,6.90
2022-12-11T19:07:33.878Z,7.80
2022-12-11T19:10:02.696Z,6.90
2022-12-11T19:12:31.434Z,7.20
2022-12-11T19:14:59.646Z,7.10
2022-12-11T19:17:28.065Z,7.20
2022-12-11T19:20:05.295Z,8.30
2022-12-11T19:22:48.286Z,8.60
2022-12-11T19:25:16.788Z,7.80
2022-12-11T19:27:46.899Z,9.00
2022-12-11T19:30:15.052Z,8.50
2022-12-11T19:32:44.026Z,7.50
2022-12-11T19:35:13.957Z,8.00
2022-12-11T19:37:42.502Z,8.60
2022-12-11T19:40:11.643Z,7.30
2022-12-11T19:42:40.643Z,7.70
2022-12-11T19:45:10.815Z,8.00
2022-12-11T19:47:39.294Z,6.60
2022-12-11T19:50:08.010Z,7.80
2022-12-11T19:52:39.188Z,6.80
2022-12-11T19:55:10.472Z,7.60
2022-12-11T19:57:39.065Z,7.10
2022-12-11T20:00:08.418Z,6.70
2022-12-11T20:02:40.452Z,7.80
2022-12-11T20:05:09.597Z,8.10
2022-12-11T20:07:38.840Z,8.00
2022-12-11T20:10:07.994Z,7.30
2022-12-11T20:12:36.531Z,7.80
2022-12-11T20:15:06.236Z,9.00
2022-12-11T20:17:37.058Z,8.80
2022-12-11T20:20:05.899Z,6.60
2022-12-11T20:22:34.432Z,8.30
2022-12-11T20:25:03.480Z,9.10
2022-12-11T20:27:31.770Z,8.80
2022-12-11T20:30:00.663Z,9.10
2022-12-11T20:32:29.368Z,8.90
2022-12-11T20:34:58.323Z,8.40
2022-12-11T20:37:29.064Z,9.00
2022-12-11T20:39:57.295Z,9.20
2022-12-11T20:42:25.892Z,9.40
2022-12-11T20:44:54.285Z,8.80
2022-12-11T20:47:22.822Z,9.10
2022-12-11T20:49:51.781Z,8.70
2022-12-11T20:52:21.015Z,7.80
2022-12-11T20:54:49.212Z,7.60
2022-12-11T20:57:17.572Z,7.90
2022-12-11T20:59:45.926Z,6.90
2022-12-11T21:02:14.280Z,5.50
2022-12-11T21:04:42.888Z,5.50
2022-12-11T21:07:11.371Z,6.00
2022-12-11T21:09:40.164Z,6.20
2022-12-11T21:12:08.890Z,6.30
2022-12-11T21:14:37.513Z,6.20
2022-12-11T21:17:06.485Z,6.60
2022-12-11T21:19:34.920Z,6.40
2022-12-11T21:22:04.043Z,7.00
2022-12-11T21:24:33.296Z,6.20
2022-12-11T21:27:02.086Z,6.80
2022-12-11T21:29:30.900Z,7.10
2022-12-11T21:31:59.435Z,7.80
2022-12-11T21:34:28.467Z,8.10
2022-12-11T21:36:57.502Z,7.60
2022-12-11T21:39:27.136Z,8.30
2022-12-11T21:41:55.847Z,7.80
2022-12-11T21:47:14.891Z,7.90
2022-12-11T21:49:43.530Z,7.20
2022-12-11T21:52:12.443Z,7.20
2022-12-11T21:54:40.974Z,7.00
2022-12-11T21:57:09.149Z,7.10
2022-12-11T21:59:37.395Z,7.40
2022-12-11T22:02:05.668Z,7.50
2022-12-11T22:04:34.695Z,8.20
2022-12-11T22:07:04.262Z,7.00
2022-12-11T22:09:35.618Z,6.40
2022-12-11T22:12:05.963Z,5.60
2022-12-11T22:14:34.888Z,5.60
2022-12-11T22:17:03.454Z,5.20
2022-12-11T22:19:32.855Z,4.70
2022-12-11T22:22:01.364Z,4.90
2022-12-11T22:24:29.643Z,5.50
2022-12-11T22:26:58.028Z,4.60
2022-12-11T22:29:26.338Z,3.60
2022-12-11T22:31:55.611Z,3.70
2022-12-11T22:34:24.086Z,3.40
2022-12-11T22:36:52.566Z,3.40
2022-12-11T22:39:20.863Z,3.10
2022-12-11T22:41:49.151Z,3.70
2022-12-11T22:44:20.783Z,3.50
2022-12-11T22:46:50.494Z,3.50
2022-12-11T22:49:20.466Z,3.60
2022-12-11T22:51:50.130Z,3.60
2022-12-11T22:54:21.544Z,3.80
2022-12-11T22:56:49.727Z,3.50
2022-12-11T22:59:18.020Z,3.60
2022-12-11T23:01:46.288Z,3.80
2022-12-11T23:04:14.548Z,3.60
2022-12-11T23:06:42.736Z,3.40
2022-12-11T23:09:11.133Z,3.60
2022-12-11T23:11:40.255Z,3.00
2022-12-11T23:14:16.110Z,3.40
2022-12-11T23:16:45.049Z,3.00
2022-12-11T23:19:13.456Z,3.30
2022-12-11T23:21:41.928Z,3.80
2022-12-11T23:24:10.796Z,3.20
2022-12-11T23:26:39.290Z,4.10
2022-12-11T23:29:08.027Z,3.50
2022-12-11T23:31:36.493Z,3.60
2022-12-11T23:34:04.710Z,3.40
2022-12-11T23:36:34.900Z,3.60
2022-12-11T23:39:04.322Z,3.40
2022-12-11T23:41:33.084Z,3.30
2022-12-11T23:44:01.535Z,3.40
2022-12-11T23:46:30.283Z,3.30
2022-12-11T23:48:59.150Z,3.70
2022-12-11T23:51:27.930Z,3.60
2022-12-11T23:53:56.738Z,3.60
2022-12-11T23:56:28.318Z,3.90
2022-12-11T23:58:57.484Z,4.20
